sensor_id;sensor_type;location;lat;lon;timestamp;P1;durP1;ratioP1;P2;durP2;ratioP2
59127;SDS011;44912;52.754;5.994;2022-09-17T00:00:59;13.93;;;2.17;;
59127;SDS011;44912;52.754;5.994;2022-09-17T00:03:25;15.43;;;2.13;;
59127;SDS011;44912;52.754;5.994;2022-09-17T00:06:25;14.32;;;2.13;;
59127;SDS011;44912;52.754;5.994;2022-09-17T00:08:44;14.20;;;1.80;;
59127;SDS011;44912;52.754;5.994;2022-09-17T00:11:11;12.00;;;1.98;;
59127;SDS011;44912;52.754;5.994;2022-09-17T00:13:39;17.02;;;2.25;;
59127;SDS011;44912;52.754;5.994;2022-09-17T00:16:05;14.75;;;2.30;;
59127;SDS011;44912;52.754;5.994;2022-09-17T00:18:31;12.23;;;2.42;;
59127;SDS011;44912;52.754;5.994;2022-09-17T00:20:57;12.02;;;2.15;;
59127;SDS011;44912;52.754;5.994;2022-09-17T00:23:23;14.63;;;2.17;;
59127;SDS011;44912;52.754;5.994;2022-09-17T00:25:49;17.75;;;2.10;;
59127;SDS011;44912;52.754;5.994;2022-09-17T00:28:14;12.95;;;1.77;;
59127;SDS011;44912;52.754;5.994;2022-09-17T00:30:41;13.90;;;2.30;;
59127;SDS011;44912;52.754;5.994;2022-09-17T00:33:08;12.75;;;2.03;;
59127;SDS011;44912;52.754;5.994;2022-09-17T00:35:36;16.35;;;2.95;;
59127;SDS011;44912;52.754;5.994;2022-09-17T00:38:02;14.98;;;2.10;;
59127;SDS011;44912;52.754;5.994;2022-09-17T00:40:27;16.63;;;2.50;;
59127;SDS011;44912;52.754;5.994;2022-09-17T00:42:53;15.13;;;2.17;;
59127;SDS011;44912;52.754;5.994;2022-09-17T00:45:19;16.92;;;2.60;;
59127;SDS011;44912;52.754;5.994;2022-09-17T00:47:46;11.77;;;2.03;;
59127;SDS011;44912;52.754;5.994;2022-09-17T00:50:25;16.30;;;2.50;;
59127;SDS011;44912;52.754;5.994;2022-09-17T00:53:00;13.05;;;1.70;;
59127;SDS011;44912;52.754;5.994;2022-09-17T00:55:45;17.90;;;2.63;;
59127;SDS011;44912;52.754;5.994;2022-09-17T00:58:15;15.23;;;2.58;;
59127;SDS011;44912;52.754;5.994;2022-09-17T01:00:44;14.38;;;1.70;;
59127;SDS011;44912;52.754;5.994;2022-09-17T01:03:11;15.70;;;2.42;;
59127;SDS011;44912;52.754;5.994;2022-09-17T01:05:53;19.13;;;2.42;;
59127;SDS011;44912;52.754;5.994;2022-09-17T01:14:18;12.48;;;1.90;;
59127;SDS011;44912;52.754;5.994;2022-09-17T01:25:19;13.20;;;1.95;;
59127;SDS011;44912;52.754;5.994;2022-09-17T01:27:55;13.30;;;2.17;;
59127;SDS011;44912;52.754;5.994;2022-09-17T01:30:46;12.48;;;2.10;;
59127;SDS011;44912;52.754;5.994;2022-09-17T01:33:39;12.45;;;1.95;;
59127;SDS011;44912;52.754;5.994;2022-09-17T01:36:09;14.63;;;2.25;;
59127;SDS011;44912;52.754;5.994;2022-09-17T01:41:29;11.75;;;1.80;;
59127;SDS011;44912;52.754;5.994;2022-09-17T01:44:05;10.50;;;1.60;;
59127;SDS011;44912;52.754;5.994;2022-09-17T01:46:45;9.45;;;1.33;;
59127;SDS011;44912;52.754;5.994;2022-09-17T01:49:27;16.30;;;2.17;;
59127;SDS011;44912;52.754;5.994;2022-09-17T01:51:55;8.98;;;1.48;;
59127;SDS011;44912;52.754;5.994;2022-09-17T01:54:25;10.70;;;1.60;;
59127;SDS011;44912;52.754;5.994;2022-09-17T02:05:02;10.07;;;1.42;;
59127;SDS011;44912;52.754;5.994;2022-09-17T02:07:32;11.35;;;1.77;;
59127;SDS011;44912;52.754;5.994;2022-09-17T02:10:07;12.85;;;1.90;;
59127;SDS011;44912;52.754;5.994;2022-09-17T02:12:38;11.48;;;2.10;;
59127;SDS011;44912;52.754;5.994;2022-09-17T02:15:10;9.70;;;1.85;;
59127;SDS011;44912;52.754;5.994;2022-09-17T02:17:47;12.02;;;1.63;;
59127;SDS011;44912;52.754;5.994;2022-09-17T02:20:16;11.30;;;2.13;;
59127;SDS011;44912;52.754;5.994;2022-09-17T02:22:46;10.88;;;1.77;;
59127;SDS011;44912;52.754;5.994;2022-09-17T02:30:28;10.73;;;1.75;;
59127;SDS011;44912;52.754;5.994;2022-09-17T02:32:54;12.27;;;1.83;;
59127;SDS011;44912;52.754;5.994;2022-09-17T02:35:20;11.50;;;1.65;;
59127;SDS011;44912;52.754;5.994;2022-09-17T02:37:46;9.25;;;1.60;;
59127;SDS011;44912;52.754;5.994;2022-09-17T02:40:13;13.55;;;2.60;;
59127;SDS011;44912;52.754;5.994;2022-09-17T02:45:35;11.77;;;2.17;;
59127;SDS011;44912;52.754;5.994;2022-09-17T02:48:53;9.02;;;1.70;;
59127;SDS011;44912;52.754;5.994;2022-09-17T02:51:21;15.77;;;2.10;;
59127;SDS011;44912;52.754;5.994;2022-09-17T02:54:09;17.30;;;2.17;;
59127;SDS011;44912;52.754;5.994;2022-09-17T03:04:46;13.30;;;1.83;;
59127;SDS011;44912;52.754;5.994;2022-09-17T03:07:15;13.40;;;2.15;;
59127;SDS011;44912;52.754;5.994;2022-09-17T03:09:43;10.45;;;1.65;;
59127;SDS011;44912;52.754;5.994;2022-09-17T03:12:11;11.45;;;2.08;;
59127;SDS011;44912;52.754;5.994;2022-09-17T03:14:37;11.10;;;1.70;;
59127;SDS011;44912;52.754;5.994;2022-09-17T03:17:03;10.98;;;1.67;;
59127;SDS011;44912;52.754;5.994;2022-09-17T03:19:29;14.73;;;1.67;;
59127;SDS011;44912;52.754;5.994;2022-09-17T03:21:54;11.18;;;1.52;;
59127;SDS011;44912;52.754;5.994;2022-09-17T03:24:20;11.13;;;1.60;;
59127;SDS011;44912;52.754;5.994;2022-09-17T03:26:45;13.18;;;2.15;;
59127;SDS011;44912;52.754;5.994;2022-09-17T03:29:14;13.20;;;2.15;;
59127;SDS011;44912;52.754;5.994;2022-09-17T03:31:40;14.13;;;2.10;;
59127;SDS011;44912;52.754;5.994;2022-09-17T03:34:06;10.77;;;1.58;;
59127;SDS011;44912;52.754;5.994;2022-09-17T03:36:31;12.55;;;1.73;;
59127;SDS011;44912;52.754;5.994;2022-09-17T03:38:57;15.10;;;2.25;;
59127;SDS011;44912;52.754;5.994;2022-09-17T03:41:23;13.32;;;1.92;;
59127;SDS011;44912;52.754;5.994;2022-09-17T03:43:49;13.25;;;1.95;;
59127;SDS011;44912;52.754;5.994;2022-09-17T03:46:15;17.73;;;2.92;;
59127;SDS011;44912;52.754;5.994;2022-09-17T03:48:41;13.48;;;2.28;;
59127;SDS011;44912;52.754;5.994;2022-09-17T03:51:06;17.45;;;2.08;;
59127;SDS011;44912;52.754;5.994;2022-09-17T03:53:32;16.10;;;2.70;;
59127;SDS011;44912;52.754;5.994;2022-09-17T03:55:58;14.35;;;2.10;;
59127;SDS011;44912;52.754;5.994;2022-09-17T03:58:25;15.05;;;2.53;;
59127;SDS011;44912;52.754;5.994;2022-09-17T04:00:52;13.43;;;2.10;;
59127;SDS011;44912;52.754;5.994;2022-09-17T04:03:18;11.00;;;1.88;;
59127;SDS011;44912;52.754;5.994;2022-09-17T04:05:45;15.77;;;2.70;;
59127;SDS011;44912;52.754;5.994;2022-09-17T04:08:11;11.77;;;2.03;;
59127;SDS011;44912;52.754;5.994;2022-09-17T04:10:36;18.30;;;2.22;;
59127;SDS011;44912;52.754;5.994;2022-09-17T04:13:02;13.68;;;1.67;;
59127;SDS011;44912;52.754;5.994;2022-09-17T04:15:27;14.25;;;2.33;;
59127;SDS011;44912;52.754;5.994;2022-09-17T04:17:56;11.07;;;1.70;;
59127;SDS011;44912;52.754;5.994;2022-09-17T04:20:22;13.40;;;2.00;;
59127;SDS011;44912;52.754;5.994;2022-09-17T04:22:48;13.82;;;1.77;;
59127;SDS011;44912;52.754;5.994;2022-09-17T04:25:14;13.38;;;1.83;;
59127;SDS011;44912;52.754;5.994;2022-09-17T04:27:40;12.70;;;2.03;;
59127;SDS011;44912;52.754;5.994;2022-09-17T04:30:05;14.90;;;2.13;;
59127;SDS011;44912;52.754;5.994;2022-09-17T04:32:31;12.63;;;2.08;;
59127;SDS011;44912;52.754;5.994;2022-09-17T04:34:57;16.52;;;2.35;;
59127;SDS011;44912;52.754;5.994;2022-09-17T04:37:22;13.45;;;2.60;;
59127;SDS011;44912;52.754;5.994;2022-09-17T04:39:49;17.10;;;2.20;;
59127;SDS011;44912;52.754;5.994;2022-09-17T04:42:15;12.23;;;1.92;;
59127;SDS011;44912;52.754;5.994;2022-09-17T04:44:41;12.70;;;1.80;;
59127;SDS011;44912;52.754;5.994;2022-09-17T04:47:06;15.73;;;2.13;;
59127;SDS011;44912;52.754;5.994;2022-09-17T04:49:32;12.48;;;1.80;;
59127;SDS011;44912;52.754;5.994;2022-09-17T04:51:57;16.35;;;2.30;;
59127;SDS011;44912;52.754;5.994;2022-09-17T04:54:23;11.50;;;1.88;;
59127;SDS011;44912;52.754;5.994;2022-09-17T04:56:49;12.95;;;1.95;;
59127;SDS011;44912;52.754;5.994;2022-09-17T04:59:15;14.55;;;1.63;;
59127;SDS011;44912;52.754;5.994;2022-09-17T05:01:40;15.23;;;1.98;;
59127;SDS011;44912;52.754;5.994;2022-09-17T05:04:07;13.40;;;1.38;;
59127;SDS011;44912;52.754;5.994;2022-09-17T05:06:33;9.75;;;1.58;;
59127;SDS011;44912;52.754;5.994;2022-09-17T05:08:58;9.93;;;1.52;;
59127;SDS011;44912;52.754;5.994;2022-09-17T05:11:24;11.50;;;1.88;;
59127;SDS011;44912;52.754;5.994;2022-09-17T05:13:50;11.82;;;1.58;;
59127;SDS011;44912;52.754;5.994;2022-09-17T05:16:15;10.15;;;1.50;;
59127;SDS011;44912;52.754;5.994;2022-09-17T05:18:41;8.88;;;1.40;;
59127;SDS011;44912;52.754;5.994;2022-09-17T05:21:07;11.32;;;1.40;;
59127;SDS011;44912;52.754;5.994;2022-09-17T05:23:32;11.43;;;1.42;;
59127;SDS011;44912;52.754;5.994;2022-09-17T05:25:58;9.15;;;1.50;;
59127;SDS011;44912;52.754;5.994;2022-09-17T05:28:24;7.15;;;1.35;;
59127;SDS011;44912;52.754;5.994;2022-09-17T05:30:50;10.30;;;1.38;;
59127;SDS011;44912;52.754;5.994;2022-09-17T05:33:16;10.50;;;1.55;;
59127;SDS011;44912;52.754;5.994;2022-09-17T05:35:43;9.55;;;1.30;;
59127;SDS011;44912;52.754;5.994;2022-09-17T05:38:09;12.77;;;1.77;;
59127;SDS011;44912;52.754;5.994;2022-09-17T05:40:35;8.82;;;1.65;;
59127;SDS011;44912;52.754;5.994;2022-09-17T05:43:03;11.75;;;1.30;;
59127;SDS011;44912;52.754;5.994;2022-09-17T05:45:31;13.68;;;1.70;;
59127;SDS011;44912;52.754;5.994;2022-09-17T05:47:57;10.65;;;1.40;;
59127;SDS011;44912;52.754;5.994;2022-09-17T05:50:25;9.98;;;1.25;;
59127;SDS011;44912;52.754;5.994;2022-09-17T05:52:52;9.18;;;1.30;;
59127;SDS011;44912;52.754;5.994;2022-09-17T05:55:19;7.97;;;1.25;;
59127;SDS011;44912;52.754;5.994;2022-09-17T05:57:46;9.15;;;1.33;;
59127;SDS011;44912;52.754;5.994;2022-09-17T06:00:12;10.85;;;1.52;;
59127;SDS011;44912;52.754;5.994;2022-09-17T06:02:38;8.70;;;1.40;;
59127;SDS011;44912;52.754;5.994;2022-09-17T06:05:04;10.45;;;1.48;;
59127;SDS011;44912;52.754;5.994;2022-09-17T06:07:30;9.73;;;1.80;;
59127;SDS011;44912;52.754;5.994;2022-09-17T06:09:58;10.63;;;1.70;;
59127;SDS011;44912;52.754;5.994;2022-09-17T06:12:24;10.05;;;1.80;;
59127;SDS011;44912;52.754;5.994;2022-09-17T06:14:49;9.05;;;1.63;;
59127;SDS011;44912;52.754;5.994;2022-09-17T06:17:15;10.95;;;1.42;;
59127;SDS011;44912;52.754;5.994;2022-09-17T06:19:40;8.73;;;1.23;;
59127;SDS011;44912;52.754;5.994;2022-09-17T06:22:06;10.00;;;1.73;;
59127;SDS011;44912;52.754;5.994;2022-09-17T06:24:31;6.82;;;1.45;;
59127;SDS011;44912;52.754;5.994;2022-09-17T06:26:57;8.30;;;1.17;;
59127;SDS011;44912;52.754;5.994;2022-09-17T06:29:23;7.72;;;1.08;;
59127;SDS011;44912;52.754;5.994;2022-09-17T06:31:48;10.07;;;1.35;;
59127;SDS011;44912;52.754;5.994;2022-09-17T06:34:14;7.65;;;0.98;;
59127;SDS011;44912;52.754;5.994;2022-09-17T06:36:40;9.98;;;1.58;;
59127;SDS011;44912;52.754;5.994;2022-09-17T06:39:06;10.07;;;1.30;;
59127;SDS011;44912;52.754;5.994;2022-09-17T06:41:31;10.02;;;1.45;;
59127;SDS011;44912;52.754;5.994;2022-09-17T06:43:57;10.05;;;1.42;;
59127;SDS011;44912;52.754;5.994;2022-09-17T06:46:23;10.57;;;1.38;;
59127;SDS011;44912;52.754;5.994;2022-09-17T06:48:49;7.03;;;1.10;;
59127;SDS011;44912;52.754;5.994;2022-09-17T06:51:14;8.40;;;1.10;;
59127;SDS011;44912;52.754;5.994;2022-09-17T06:53:40;7.30;;;0.95;;
59127;SDS011;44912;52.754;5.994;2022-09-17T06:56:06;6.85;;;1.05;;
59127;SDS011;44912;52.754;5.994;2022-09-17T06:58:33;6.97;;;1.33;;
59127;SDS011;44912;52.754;5.994;2022-09-17T07:01:05;8.68;;;1.20;;
59127;SDS011;44912;52.754;5.994;2022-09-17T07:03:31;9.38;;;1.17;;
59127;SDS011;44912;52.754;5.994;2022-09-17T07:05:58;6.95;;;1.05;;
59127;SDS011;44912;52.754;5.994;2022-09-17T07:08:24;6.30;;;0.93;;
59127;SDS011;44912;52.754;5.994;2022-09-17T07:10:56;4.40;;;0.70;;
59127;SDS011;44912;52.754;5.994;2022-09-17T07:13:22;5.35;;;0.85;;
59127;SDS011;44912;52.754;5.994;2022-09-17T07:15:52;7.95;;;1.38;;
59127;SDS011;44912;52.754;5.994;2022-09-17T07:18:20;4.65;;;0.80;;
59127;SDS011;44912;52.754;5.994;2022-09-17T07:20:51;5.57;;;0.85;;
59127;SDS011;44912;52.754;5.994;2022-09-17T07:23:18;7.97;;;1.35;;
59127;SDS011;44912;52.754;5.994;2022-09-17T07:25:43;6.28;;;1.00;;
59127;SDS011;44912;52.754;5.994;2022-09-17T07:28:09;7.25;;;0.95;;
59127;SDS011;44912;52.754;5.994;2022-09-17T07:30:34;12.93;;;3.53;;
59127;SDS011;44912;52.754;5.994;2022-09-17T07:33:00;12.70;;;3.50;;
59127;SDS011;44912;52.754;5.994;2022-09-17T07:35:26;9.05;;;2.22;;
59127;SDS011;44912;52.754;5.994;2022-09-17T07:37:52;7.13;;;0.88;;
59127;SDS011;44912;52.754;5.994;2022-09-17T07:40:17;7.90;;;1.00;;
59127;SDS011;44912;52.754;5.994;2022-09-17T07:42:43;11.30;;;1.15;;
59127;SDS011;44912;52.754;5.994;2022-09-17T07:45:08;7.20;;;1.30;;
59127;SDS011;44912;52.754;5.994;2022-09-17T07:47:38;7.07;;;1.55;;
59127;SDS011;44912;52.754;5.994;2022-09-17T07:50:04;7.78;;;1.00;;
59127;SDS011;44912;52.754;5.994;2022-09-17T07:52:31;8.00;;;1.40;;
59127;SDS011;44912;52.754;5.994;2022-09-17T07:54:56;7.55;;;0.98;;
59127;SDS011;44912;52.754;5.994;2022-09-17T07:57:22;8.45;;;1.48;;
59127;SDS011;44912;52.754;5.994;2022-09-17T07:59:47;10.52;;;1.88;;
59127;SDS011;44912;52.754;5.994;2022-09-17T08:02:13;11.95;;;1.67;;
59127;SDS011;44912;52.754;5.994;2022-09-17T08:04:40;9.15;;;1.38;;
59127;SDS011;44912;52.754;5.994;2022-09-17T08:07:09;7.45;;;0.95;;
59127;SDS011;44912;52.754;5.994;2022-09-17T08:09:36;10.05;;;1.10;;
59127;SDS011;44912;52.754;5.994;2022-09-17T08:12:02;5.85;;;1.00;;
59127;SDS011;44912;52.754;5.994;2022-09-17T08:14:27;9.63;;;1.38;;
59127;SDS011;44912;52.754;5.994;2022-09-17T08:16:53;10.23;;;1.35;;
59127;SDS011;44912;52.754;5.994;2022-09-17T08:19:18;6.65;;;1.00;;
59127;SDS011;44912;52.754;5.994;2022-09-17T08:21:45;5.70;;;1.00;;
59127;SDS011;44912;52.754;5.994;2022-09-17T08:24:10;8.77;;;1.25;;
59127;SDS011;44912;52.754;5.994;2022-09-17T08:26:36;9.95;;;1.27;;
59127;SDS011;44912;52.754;5.994;2022-09-17T08:29:03;7.95;;;1.65;;
59127;SDS011;44912;52.754;5.994;2022-09-17T08:31:29;7.07;;;1.13;;
59127;SDS011;44912;52.754;5.994;2022-09-17T08:33:57;8.85;;;1.23;;
59127;SDS011;44912;52.754;5.994;2022-09-17T08:36:23;10.38;;;1.10;;
59127;SDS011;44912;52.754;5.994;2022-09-17T08:38:52;7.25;;;1.10;;
59127;SDS011;44912;52.754;5.994;2022-09-17T08:41:21;8.60;;;1.58;;
59127;SDS011;44912;52.754;5.994;2022-09-17T08:46:45;5.25;;;0.95;;
59127;SDS011;44912;52.754;5.994;2022-09-17T08:52:01;5.45;;;0.70;;
59127;SDS011;44912;52.754;5.994;2022-09-17T08:54:51;5.93;;;0.88;;
59127;SDS011;44912;52.754;5.994;2022-09-17T08:58:29;3.63;;;0.57;;
59127;SDS011;44912;52.754;5.994;2022-09-17T09:00:20;2.75;;;0.60;;
59127;SDS011;44912;52.754;5.994;2022-09-17T09:05:44;5.82;;;1.00;;
59127;SDS011;44912;52.754;5.994;2022-09-17T09:11:00;7.03;;;1.20;;
59127;SDS011;44912;52.754;5.994;2022-09-17T09:13:35;9.68;;;1.40;;
59127;SDS011;44912;52.754;5.994;2022-09-17T09:16:09;7.00;;;1.20;;
59127;SDS011;44912;52.754;5.994;2022-09-17T09:18:41;7.18;;;1.05;;
59127;SDS011;44912;52.754;5.994;2022-09-17T09:26:20;5.80;;;0.90;;
59127;SDS011;44912;52.754;5.994;2022-09-17T09:34:37;5.82;;;0.77;;
59127;SDS011;44912;52.754;5.994;2022-09-17T09:37:12;6.68;;;1.50;;
59127;SDS011;44912;52.754;5.994;2022-09-17T09:39:45;7.20;;;0.85;;
59127;SDS011;44912;52.754;5.994;2022-09-17T09:51:13;8.27;;;1.60;;
59127;SDS011;44912;52.754;5.994;2022-09-17T09:53:58;8.23;;;1.40;;
59127;SDS011;44912;52.754;5.994;2022-09-17T09:59:22;9.20;;;1.30;;
59127;SDS011;44912;52.754;5.994;2022-09-17T10:01:48;8.52;;;1.40;;
59127;SDS011;44912;52.754;5.994;2022-09-17T10:04:16;8.32;;;1.30;;
59127;SDS011;44912;52.754;5.994;2022-09-17T10:06:44;6.75;;;1.23;;
59127;SDS011;44912;52.754;5.994;2022-09-17T10:09:11;10.00;;;1.40;;
59127;SDS011;44912;52.754;5.994;2022-09-17T10:11:39;8.73;;;1.45;;
59127;SDS011;44912;52.754;5.994;2022-09-17T10:14:24;8.70;;;1.38;;
59127;SDS011;44912;52.754;5.994;2022-09-17T10:17:10;8.23;;;1.30;;
59127;SDS011;44912;52.754;5.994;2022-09-17T10:20:24;10.98;;;1.60;;
59127;SDS011;44912;52.754;5.994;2022-09-17T10:22:35;3.30;;;0.60;;
59127;SDS011;44912;52.754;5.994;2022-09-17T10:25:01;6.13;;;1.13;;
59127;SDS011;44912;52.754;5.994;2022-09-17T10:27:29;7.18;;;0.90;;
59127;SDS011;44912;52.754;5.994;2022-09-17T10:32:33;7.70;;;1.25;;
59127;SDS011;44912;52.754;5.994;2022-09-17T10:35:04;8.60;;;1.40;;
59127;SDS011;44912;52.754;5.994;2022-09-17T10:37:48;10.15;;;1.33;;
59127;SDS011;44912;52.754;5.994;2022-09-17T10:42:47;9.05;;;1.27;;
59127;SDS011;44912;52.754;5.994;2022-09-17T10:45:33;13.63;;;1.42;;
59127;SDS011;44912;52.754;5.994;2022-09-17T10:48:02;6.82;;;1.58;;
59127;SDS011;44912;52.754;5.994;2022-09-17T10:50:29;6.43;;;1.50;;
59127;SDS011;44912;52.754;5.994;2022-09-17T10:53:00;9.30;;;1.27;;
59127;SDS011;44912;52.754;5.994;2022-09-17T10:55:29;8.15;;;1.30;;
59127;SDS011;44912;52.754;5.994;2022-09-17T11:16:34;4.22;;;0.90;;
59127;SDS011;44912;52.754;5.994;2022-09-17T11:19:22;3.80;;;0.80;;
59127;SDS011;44912;52.754;5.994;2022-09-17T11:22:01;7.22;;;0.90;;
59127;SDS011;44912;52.754;5.994;2022-09-17T11:27:37;5.05;;;0.90;;
59127;SDS011;44912;52.754;5.994;2022-09-17T11:30:26;1.67;;;0.30;;
59127;SDS011;44912;52.754;5.994;2022-09-17T11:36:25;3.17;;;0.73;;
59127;SDS011;44912;52.754;5.994;2022-09-17T11:38:56;2.85;;;0.45;;
59127;SDS011;44912;52.754;5.994;2022-09-17T11:41:30;4.60;;;0.88;;
59127;SDS011;44912;52.754;5.994;2022-09-17T11:49:33;6.38;;;1.13;;
59127;SDS011;44912;52.754;5.994;2022-09-17T11:54:51;6.95;;;1.00;;
59127;SDS011;44912;52.754;5.994;2022-09-17T11:57:35;8.20;;;1.38;;
59127;SDS011;44912;52.754;5.994;2022-09-17T12:05:33;11.80;;;2.00;;
59127;SDS011;44912;52.754;5.994;2022-09-17T12:08:09;8.00;;;1.20;;
59127;SDS011;44912;52.754;5.994;2022-09-17T12:13:43;7.72;;;1.20;;
59127;SDS011;44912;52.754;5.994;2022-09-17T12:19:03;7.18;;;1.38;;
59127;SDS011;44912;52.754;5.994;2022-09-17T12:21:40;6.65;;;1.40;;
59127;SDS011;44912;52.754;5.994;2022-09-17T12:24:18;9.07;;;1.20;;
59127;SDS011;44912;52.754;5.994;2022-09-17T12:35:04;15.60;;;3.28;;
59127;SDS011;44912;52.754;5.994;2022-09-17T12:42:59;15.63;;;2.65;;
59127;SDS011;44912;52.754;5.994;2022-09-17T12:51:22;12.63;;;1.75;;
59127;SDS011;44912;52.754;5.994;2022-09-17T12:56:33;11.77;;;2.30;;
59127;SDS011;44912;52.754;5.994;2022-09-17T12:59:18;13.63;;;2.35;;
59127;SDS011;44912;52.754;5.994;2022-09-17T13:01:51;12.57;;;1.83;;
59127;SDS011;44912;52.754;5.994;2022-09-17T13:07:38;14.00;;;2.00;;
59127;SDS011;44912;52.754;5.994;2022-09-17T13:13:24;10.13;;;1.50;;
59127;SDS011;44912;52.754;5.994;2022-09-17T13:16:18;10.02;;;1.50;;
59127;SDS011;44912;52.754;5.994;2022-09-17T13:21:38;9.45;;;1.70;;
59127;SDS011;44912;52.754;5.994;2022-09-17T13:24:17;9.02;;;1.60;;
59127;SDS011;44912;52.754;5.994;2022-09-17T13:26:44;10.73;;;1.50;;
59127;SDS011;44912;52.754;5.994;2022-09-17T13:29:10;13.13;;;2.15;;
59127;SDS011;44912;52.754;5.994;2022-09-17T13:34:03;7.75;;;1.15;;
59127;SDS011;44912;52.754;5.994;2022-09-17T13:37:16;6.97;;;1.60;;
59127;SDS011;44912;52.754;5.994;2022-09-17T13:39:44;9.52;;;1.58;;
59127;SDS011;44912;52.754;5.994;2022-09-17T13:42:16;7.55;;;1.23;;
59127;SDS011;44912;52.754;5.994;2022-09-17T13:44:52;10.77;;;1.90;;
59127;SDS011;44912;52.754;5.994;2022-09-17T13:47:53;6.63;;;1.30;;
59127;SDS011;44912;52.754;5.994;2022-09-17T13:50:35;10.18;;;1.40;;
59127;SDS011;44912;52.754;5.994;2022-09-17T13:58:19;4.28;;;0.90;;
59127;SDS011;44912;52.754;5.994;2022-09-17T14:01:00;7.55;;;1.67;;
59127;SDS011;44912;52.754;5.994;2022-09-17T14:18:59;6.53;;;0.95;;
59127;SDS011;44912;52.754;5.994;2022-09-17T14:21:33;5.18;;;0.95;;
59127;SDS011;44912;52.754;5.994;2022-09-17T14:24:00;5.32;;;0.75;;
59127;SDS011;44912;52.754;5.994;2022-09-17T14:26:38;5.60;;;1.00;;
59127;SDS011;44912;52.754;5.994;2022-09-17T14:29:32;7.07;;;1.02;;
59127;SDS011;44912;52.754;5.994;2022-09-17T14:31:58;7.13;;;1.03;;
59127;SDS011;44912;52.754;5.994;2022-09-17T14:34:24;6.22;;;0.95;;
59127;SDS011;44912;52.754;5.994;2022-09-17T14:36:51;7.65;;;1.13;;
59127;SDS011;44912;52.754;5.994;2022-09-17T14:39:26;8.73;;;1.58;;
59127;SDS011;44912;52.754;5.994;2022-09-17T14:41:59;8.25;;;2.00;;
59127;SDS011;44912;52.754;5.994;2022-09-17T14:44:25;8.70;;;1.00;;
59127;SDS011;44912;52.754;5.994;2022-09-17T14:47:06;6.30;;;1.15;;
59127;SDS011;44912;52.754;5.994;2022-09-17T14:49:39;8.23;;;1.20;;
59127;SDS011;44912;52.754;5.994;2022-09-17T14:55:10;11.07;;;1.63;;
59127;SDS011;44912;52.754;5.994;2022-09-17T14:57:51;7.38;;;0.90;;
59127;SDS011;44912;52.754;5.994;2022-09-17T15:00:22;6.85;;;1.17;;
59127;SDS011;44912;52.754;5.994;2022-09-17T15:02:55;4.53;;;0.95;;
59127;SDS011;44912;52.754;5.994;2022-09-17T15:05:26;7.10;;;1.00;;
59127;SDS011;44912;52.754;5.994;2022-09-17T15:11:00;6.68;;;1.30;;
59127;SDS011;44912;52.754;5.994;2022-09-17T15:13:28;6.30;;;1.23;;
59127;SDS011;44912;52.754;5.994;2022-09-17T15:16:03;11.50;;;1.20;;
59127;SDS011;44912;52.754;5.994;2022-09-17T15:18:40;5.30;;;1.10;;
59127;SDS011;44912;52.754;5.994;2022-09-17T15:23:57;10.75;;;1.35;;
59127;SDS011;44912;52.754;5.994;2022-09-17T15:26:29;10.05;;;1.17;;
59127;SDS011;44912;52.754;5.994;2022-09-17T15:28:59;10.15;;;1.38;;
59127;SDS011;44912;52.754;5.994;2022-09-17T15:31:26;10.23;;;1.55;;
59127;SDS011;44912;52.754;5.994;2022-09-17T15:33:52;10.70;;;1.88;;
59127;SDS011;44912;52.754;5.994;2022-09-17T15:36:20;9.20;;;1.63;;
59127;SDS011;44912;52.754;5.994;2022-09-17T15:38:47;8.88;;;1.35;;
59127;SDS011;44912;52.754;5.994;2022-09-17T15:41:47;12.38;;;2.17;;
59127;SDS011;44912;52.754;5.994;2022-09-17T15:46:36;16.83;;;1.90;;
59127;SDS011;44912;52.754;5.994;2022-09-17T15:49:02;11.45;;;1.70;;
59127;SDS011;44912;52.754;5.994;2022-09-17T15:51:48;13.50;;;1.92;;
59127;SDS011;44912;52.754;5.994;2022-09-17T15:54:27;10.63;;;2.03;;
59127;SDS011;44912;52.754;5.994;2022-09-17T15:56:55;8.23;;;1.23;;
59127;SDS011;44912;52.754;5.994;2022-09-17T15:59:27;7.95;;;1.42;;
59127;SDS011;44912;52.754;5.994;2022-09-17T16:01:55;8.18;;;1.20;;
59127;SDS011;44912;52.754;5.994;2022-09-17T16:04:27;10.02;;;1.45;;
59127;SDS011;44912;52.754;5.994;2022-09-17T16:12:10;6.88;;;1.20;;
59127;SDS011;44912;52.754;5.994;2022-09-17T16:14:41;5.53;;;1.20;;
59127;SDS011;44912;52.754;5.994;2022-09-17T16:17:29;9.00;;;1.35;;
59127;SDS011;44912;52.754;5.994;2022-09-17T16:19:59;9.23;;;1.33;;
59127;SDS011;44912;52.754;5.994;2022-09-17T16:22:45;6.65;;;1.10;;
59127;SDS011;44912;52.754;5.994;2022-09-17T16:25:12;10.48;;;1.10;;
59127;SDS011;44912;52.754;5.994;2022-09-17T16:27:41;6.93;;;1.30;;
59127;SDS011;44912;52.754;5.994;2022-09-17T16:30:12;8.55;;;1.33;;
59127;SDS011;44912;52.754;5.994;2022-09-17T16:32:40;9.35;;;1.40;;
59127;SDS011;44912;52.754;5.994;2022-09-17T16:35:07;10.07;;;1.52;;
59127;SDS011;44912;52.754;5.994;2022-09-17T16:37:36;11.48;;;1.75;;
59127;SDS011;44912;52.754;5.994;2022-09-17T16:40:02;11.52;;;1.60;;
59127;SDS011;44912;52.754;5.994;2022-09-17T16:42:31;11.82;;;1.40;;
59127;SDS011;44912;52.754;5.994;2022-09-17T16:44:56;9.45;;;1.33;;
59127;SDS011;44912;52.754;5.994;2022-09-17T16:47:24;10.93;;;1.80;;
59127;SDS011;44912;52.754;5.994;2022-09-17T16:49:49;9.65;;;1.67;;
59127;SDS011;44912;52.754;5.994;2022-09-17T16:55:04;14.07;;;2.20;;
59127;SDS011;44912;52.754;5.994;2022-09-17T16:57:30;11.75;;;1.70;;
59127;SDS011;44912;52.754;5.994;2022-09-17T16:59:56;9.85;;;1.38;;
59127;SDS011;44912;52.754;5.994;2022-09-17T17:02:22;7.45;;;1.40;;
59127;SDS011;44912;52.754;5.994;2022-09-17T17:04:47;12.13;;;1.30;;
59127;SDS011;44912;52.754;5.994;2022-09-17T17:07:13;10.25;;;1.40;;
59127;SDS011;44912;52.754;5.994;2022-09-17T17:09:39;10.98;;;1.58;;
59127;SDS011;44912;52.754;5.994;2022-09-17T17:12:04;7.70;;;1.23;;
59127;SDS011;44912;52.754;5.994;2022-09-17T17:14:30;7.35;;;1.20;;
59127;SDS011;44912;52.754;5.994;2022-09-17T17:16:56;7.43;;;1.23;;
59127;SDS011;44912;52.754;5.994;2022-09-17T17:19:30;9.80;;;1.30;;
59127;SDS011;44912;52.754;5.994;2022-09-17T17:22:24;8.07;;;1.20;;
59127;SDS011;44912;52.754;5.994;2022-09-17T17:24:56;9.38;;;1.50;;
59127;SDS011;44912;52.754;5.994;2022-09-17T17:27:21;10.23;;;1.33;;
59127;SDS011;44912;52.754;5.994;2022-09-17T17:29:47;9.18;;;1.73;;
59127;SDS011;44912;52.754;5.994;2022-09-17T17:32:12;7.93;;;1.60;;
59127;SDS011;44912;52.754;5.994;2022-09-17T17:34:38;10.98;;;1.48;;
59127;SDS011;44912;52.754;5.994;2022-09-17T17:37:04;14.32;;;1.90;;
59127;SDS011;44912;52.754;5.994;2022-09-17T17:39:29;11.63;;;1.80;;
59127;SDS011;44912;52.754;5.994;2022-09-17T17:41:58;10.32;;;1.30;;
59127;SDS011;44912;52.754;5.994;2022-09-17T17:44:26;11.20;;;1.38;;
59127;SDS011;44912;52.754;5.994;2022-09-17T17:46:52;9.77;;;1.58;;
59127;SDS011;44912;52.754;5.994;2022-09-17T17:49:18;9.40;;;1.60;;
59127;SDS011;44912;52.754;5.994;2022-09-17T17:51:43;14.25;;;3.20;;
59127;SDS011;44912;52.754;5.994;2022-09-17T17:54:09;10.40;;;1.30;;
59127;SDS011;44912;52.754;5.994;2022-09-17T17:56:38;11.32;;;1.60;;
59127;SDS011;44912;52.754;5.994;2022-09-17T17:59:05;8.95;;;1.20;;
59127;SDS011;44912;52.754;5.994;2022-09-17T18:01:31;8.85;;;1.48;;
59127;SDS011;44912;52.754;5.994;2022-09-17T18:04:02;15.07;;;1.88;;
59127;SDS011;44912;52.754;5.994;2022-09-17T18:06:29;7.35;;;1.63;;
59127;SDS011;44912;52.754;5.994;2022-09-17T18:08:55;10.23;;;1.35;;
59127;SDS011;44912;52.754;5.994;2022-09-17T18:11:21;10.25;;;1.48;;
59127;SDS011;44912;52.754;5.994;2022-09-17T18:13:53;8.75;;;1.35;;
59127;SDS011;44912;52.754;5.994;2022-09-17T18:16:20;8.63;;;1.13;;